createdAt,value
2018-12-26T00:02:13.806Z,22.53
2018-12-26T00:04:40.449Z,22.50
2018-12-26T00:07:07.113Z,22.43
2018-12-26T00:09:33.750Z,22.38
2018-12-26T00:12:00.393Z,22.39
2018-12-26T00:14:27.047Z,22.37
2018-12-26T00:16:53.689Z,22.41
2018-12-26T00:19:20.337Z,22.44
2018-12-26T00:21:46.984Z,22.45
2018-12-26T00:24:13.651Z,22.46
2018-12-26T00:26:40.278Z,22.47
2018-12-26T00:29:06.920Z,22.47
2018-12-26T00:31:33.578Z,22.51
2018-12-26T00:34:00.207Z,22.49
2018-12-26T00:36:26.860Z,22.53
2018-12-26T00:38:53.498Z,22.54
2018-12-26T00:41:20.202Z,22.55
2018-12-26T00:43:46.845Z,22.55
2018-12-26T00:46:13.477Z,22.52
2018-12-26T00:48:40.148Z,22.47
2018-12-26T00:51:06.793Z,22.39
2018-12-26T00:53:33.457Z,22.41
2018-12-26T00:56:00.093Z,22.33
2018-12-26T00:58:26.740Z,22.35
2018-12-26T01:00:53.381Z,22.35
2018-12-26T01:03:20.032Z,22.40
2018-12-26T01:05:46.697Z,22.42
2018-12-26T01:08:13.324Z,22.41
2018-12-26T01:10:39.966Z,22.43
2018-12-26T01:13:06.611Z,22.47
2018-12-26T01:15:33.255Z,22.43
2018-12-26T01:17:59.896Z,22.47
2018-12-26T01:20:26.536Z,22.49
2018-12-26T01:22:53.216Z,22.47
2018-12-26T01:25:19.856Z,22.46
2018-12-26T01:27:46.594Z,22.47
2018-12-26T01:30:13.329Z,22.46
2018-12-26T01:32:39.976Z,22.46
2018-12-26T01:35:06.619Z,22.39
2018-12-26T01:37:33.317Z,22.31
2018-12-26T01:39:59.973Z,22.21
2018-12-26T01:42:26.626Z,22.30
2018-12-26T01:44:54.187Z,22.32
2018-12-26T01:47:19.909Z,22.30
2018-12-26T01:49:46.543Z,22.36
2018-12-26T01:52:13.179Z,22.36
2018-12-26T01:54:39.819Z,22.38
2018-12-26T01:57:06.519Z,22.38
2018-12-26T01:59:33.169Z,22.41
2018-12-26T02:01:59.865Z,22.44
2018-12-26T02:04:26.514Z,22.42
2018-12-26T02:06:53.158Z,22.45
2018-12-26T02:09:19.797Z,22.47
2018-12-26T02:11:46.437Z,22.47
2018-12-26T02:14:13.221Z,22.47
2018-12-26T02:16:39.858Z,22.48
2018-12-26T02:19:06.497Z,22.53
2018-12-26T02:21:33.147Z,22.42
2018-12-26T02:23:59.874Z,22.37
2018-12-26T02:26:26.565Z,22.32
2018-12-26T02:28:53.202Z,22.31
2018-12-26T02:31:19.856Z,22.30
2018-12-26T02:33:46.529Z,22.30
2018-12-26T02:36:13.238Z,22.34
2018-12-26T02:38:39.877Z,22.36
2018-12-26T02:41:06.574Z,22.38
2018-12-26T02:43:33.231Z,22.41
2018-12-26T02:45:59.871Z,22.40
2018-12-26T02:48:26.528Z,22.43
2018-12-26T02:50:53.174Z,22.42
2018-12-26T02:53:19.830Z,22.44
2018-12-26T02:55:46.470Z,22.47
2018-12-26T02:58:13.120Z,22.45
2018-12-26T03:00:39.769Z,22.48
2018-12-26T03:03:06.417Z,22.50
2018-12-26T03:05:33.053Z,22.48
2018-12-26T03:07:59.715Z,22.38
2018-12-26T03:10:26.369Z,22.29
2018-12-26T03:12:53.032Z,22.31
2018-12-26T03:15:19.680Z,22.33
2018-12-26T03:17:46.382Z,22.34
2018-12-26T03:20:13.032Z,22.32
2018-12-26T03:22:39.715Z,22.37
2018-12-26T03:25:06.371Z,22.36
2018-12-26T03:27:33.009Z,22.41
2018-12-26T03:29:59.810Z,22.41
2018-12-26T03:32:26.503Z,22.46
2018-12-26T03:34:53.133Z,22.44
2018-12-26T03:37:19.784Z,22.47
2018-12-26T03:39:46.481Z,22.46
2018-12-26T03:42:13.121Z,22.46
2018-12-26T03:44:39.766Z,22.49
2018-12-26T03:47:06.416Z,22.51
2018-12-26T03:49:33.050Z,22.48
2018-12-26T03:52:02.077Z,22.45
2018-12-26T03:54:26.328Z,22.40
2018-12-26T03:56:52.982Z,22.36
2018-12-26T03:59:19.637Z,22.35
2018-12-26T04:01:46.324Z,22.32
2018-12-26T04:04:12.980Z,22.33
2018-12-26T04:06:39.667Z,22.34
2018-12-26T04:09:06.316Z,22.37
2018-12-26T04:11:33.009Z,22.35
2018-12-26T04:13:59.659Z,22.38
2018-12-26T04:16:26.308Z,22.38
2018-12-26T04:18:52.950Z,22.42
2018-12-26T04:21:19.642Z,22.40
2018-12-26T04:23:46.285Z,22.40
2018-12-26T04:26:12.937Z,22.44
2018-12-26T04:28:39.622Z,22.44
2018-12-26T04:31:06.272Z,22.42
2018-12-26T04:33:32.917Z,22.46
2018-12-26T04:35:59.615Z,22.30
2018-12-26T04:38:26.269Z,21.96
2018-12-26T04:40:52.905Z,21.88
2018-12-26T04:43:19.551Z,21.94
2018-12-26T04:45:46.252Z,21.94
2018-12-26T04:48:12.902Z,22.00
2018-12-26T04:50:39.666Z,22.06
2018-12-26T04:53:06.314Z,22.11
2018-12-26T04:55:33.002Z,22.14
2018-12-26T04:57:59.647Z,22.16
2018-12-26T05:00:26.299Z,22.20
2018-12-26T05:02:52.952Z,22.20
2018-12-26T05:05:19.636Z,22.26
2018-12-26T05:07:46.287Z,22.23
2018-12-26T05:10:12.941Z,22.24
2018-12-26T05:12:39.629Z,22.29
2018-12-26T05:15:06.285Z,22.28
2018-12-26T05:17:32.922Z,22.31
2018-12-26T05:19:59.660Z,22.26
2018-12-26T05:22:26.215Z,22.20
2018-12-26T05:24:52.905Z,22.17
2018-12-26T05:27:19.646Z,22.20
2018-12-26T05:29:46.336Z,22.14
2018-12-26T05:32:12.988Z,22.16
2018-12-26T05:34:39.674Z,22.21
2018-12-26T05:37:06.322Z,22.23
2018-12-26T05:39:32.982Z,22.26
2018-12-26T05:41:59.624Z,22.28
2018-12-26T05:44:26.273Z,22.29
2018-12-26T05:46:52.924Z,22.31
2018-12-26T05:49:19.622Z,22.34
2018-12-26T05:51:46.275Z,22.33
2018-12-26T05:54:12.918Z,22.37
2018-12-26T05:56:39.609Z,22.36
2018-12-26T05:59:06.257Z,22.33
2018-12-26T06:01:32.964Z,22.36
2018-12-26T06:03:59.602Z,22.32
2018-12-26T06:06:26.247Z,22.20
2018-12-26T06:08:52.948Z,22.16
2018-12-26T06:11:19.596Z,22.20
2018-12-26T06:13:46.255Z,22.16
2018-12-26T06:16:12.965Z,22.19
2018-12-26T06:18:39.598Z,22.33
2018-12-26T06:21:06.235Z,22.60
2018-12-26T06:23:32.889Z,22.51
2018-12-26T06:25:59.601Z,22.44
2018-12-26T06:28:26.238Z,22.56
2018-12-26T06:30:52.876Z,22.78
2018-12-26T06:33:19.527Z,22.92
2018-12-26T06:35:47.602Z,23.05
2018-12-26T06:38:12.874Z,23.26
2018-12-26T06:40:39.520Z,23.29
2018-12-26T06:43:06.155Z,23.36
2018-12-26T06:45:32.803Z,23.35
2018-12-26T06:48:00.933Z,23.26
2018-12-26T06:50:26.156Z,23.33
2018-12-26T06:52:52.799Z,23.39
2018-12-26T06:55:19.442Z,23.41
2018-12-26T06:57:46.084Z,23.44
2018-12-26T07:00:12.772Z,23.51
2018-12-26T07:02:39.411Z,23.59
2018-12-26T07:05:06.060Z,23.65
2018-12-26T07:07:32.707Z,23.70
2018-12-26T07:09:59.357Z,23.81
2018-12-26T07:12:26.009Z,23.85
2018-12-26T07:14:52.644Z,23.91
2018-12-26T07:17:19.287Z,23.94
2018-12-26T07:19:45.998Z,23.97
2018-12-26T07:22:12.707Z,24.12
2018-12-26T07:24:39.344Z,24.10
2018-12-26T07:27:06.002Z,24.18
2018-12-26T07:29:32.651Z,24.23
2018-12-26T07:31:59.367Z,24.29
2018-12-26T07:34:26.009Z,24.34
2018-12-26T07:36:52.641Z,24.41
2018-12-26T07:39:19.298Z,24.46
2018-12-26T07:41:45.942Z,24.48
2018-12-26T07:44:12.597Z,24.60
2018-12-26T07:46:39.246Z,24.59
2018-12-26T07:49:05.944Z,24.55
2018-12-26T07:51:32.594Z,24.62
2018-12-26T07:53:59.482Z,24.64
2018-12-26T07:56:26.119Z,24.74
2018-12-26T07:58:52.758Z,24.60
2018-12-26T08:01:19.414Z,24.64
2018-12-26T08:03:46.051Z,24.65
2018-12-26T08:06:12.745Z,24.59
2018-12-26T08:08:39.393Z,24.62
2018-12-26T08:11:06.050Z,24.58
2018-12-26T08:13:32.701Z,24.60
2018-12-26T08:15:59.396Z,24.57
2018-12-26T08:18:26.038Z,24.60
2018-12-26T08:20:52.726Z,24.56
2018-12-26T08:23:19.357Z,24.59
2018-12-26T08:25:46.004Z,24.56
2018-12-26T08:28:12.731Z,24.58
2018-12-26T08:30:39.373Z,24.57
2018-12-26T08:33:06.064Z,24.49
2018-12-26T08:35:32.714Z,24.54
2018-12-26T08:37:59.412Z,24.56
2018-12-26T08:40:26.051Z,24.57
2018-12-26T08:42:52.744Z,24.57
2018-12-26T08:45:22.619Z,24.56
2018-12-26T08:47:49.270Z,24.59
2018-12-26T08:50:15.923Z,24.66
2018-12-26T08:52:42.558Z,24.61
2018-12-26T08:55:09.199Z,24.51
2018-12-26T08:57:35.845Z,24.55
2018-12-26T09:00:02.547Z,24.52
2018-12-26T09:02:29.190Z,24.48
2018-12-26T09:04:55.828Z,24.50
2018-12-26T09:07:22.484Z,24.36
2018-12-26T09:09:49.172Z,24.41
2018-12-26T09:12:15.807Z,24.32
2018-12-26T09:14:42.497Z,24.34
2018-12-26T09:17:09.204Z,24.27
2018-12-26T09:19:35.856Z,24.25
2018-12-26T09:22:02.495Z,24.19
2018-12-26T09:24:29.317Z,24.14
2018-12-26T09:26:55.964Z,24.13
2018-12-26T09:29:22.654Z,24.02
2018-12-26T09:31:49.301Z,24.04
2018-12-26T09:34:15.990Z,24.02
2018-12-26T09:36:42.638Z,24.03
2018-12-26T09:39:09.334Z,23.99
2018-12-26T09:41:35.987Z,23.96
2018-12-26T09:44:02.638Z,23.92
2018-12-26T09:46:29.278Z,23.90
2018-12-26T09:48:55.938Z,23.87
2018-12-26T09:51:22.606Z,23.86
2018-12-26T09:53:49.243Z,23.81
2018-12-26T09:56:16.031Z,23.83
2018-12-26T09:58:42.729Z,23.80
2018-12-26T10:01:12.448Z,23.76
2018-12-26T10:03:39.138Z,23.77
2018-12-26T10:06:05.785Z,23.81
2018-12-26T10:08:32.470Z,23.80
2018-12-26T10:10:59.129Z,23.78
2018-12-26T10:13:25.768Z,23.76
2018-12-26T10:15:52.433Z,23.71
2018-12-26T10:18:19.069Z,23.74
2018-12-26T10:20:45.756Z,23.72
2018-12-26T10:23:12.400Z,23.72
2018-12-26T10:25:39.096Z,23.68
2018-12-26T10:28:05.743Z,23.69
2018-12-26T10:30:32.491Z,23.66
2018-12-26T10:32:59.136Z,23.68
2018-12-26T10:35:25.777Z,23.69
2018-12-26T10:37:52.429Z,23.69
2018-12-26T10:40:19.118Z,23.67
2018-12-26T10:42:46.071Z,23.69
2018-12-26T10:45:12.461Z,23.62
2018-12-26T10:47:39.099Z,23.65
2018-12-26T10:50:05.748Z,23.62
2018-12-26T10:52:32.395Z,23.60
2018-12-26T10:54:59.077Z,23.59
2018-12-26T10:57:25.783Z,23.59
2018-12-26T10:59:52.436Z,23.58
2018-12-26T11:02:19.089Z,23.59
2018-12-26T11:04:45.781Z,23.62
2018-12-26T11:07:12.475Z,23.59
2018-12-26T11:09:39.112Z,23.60
2018-12-26T11:12:05.805Z,23.60
2018-12-26T11:14:32.519Z,23.59
2018-12-26T11:16:59.157Z,23.64
2018-12-26T11:19:25.853Z,23.64
2018-12-26T11:21:52.494Z,23.67
2018-12-26T11:24:19.190Z,23.67
2018-12-26T11:26:45.889Z,23.67
2018-12-26T11:29:18.585Z,23.68
2018-12-26T11:31:39.247Z,23.72
2018-12-26T11:34:05.881Z,23.73
2018-12-26T11:36:32.539Z,23.79
2018-12-26T11:38:59.194Z,23.77
2018-12-26T11:41:25.887Z,23.76
2018-12-26T11:43:52.575Z,23.75
2018-12-26T11:46:19.209Z,23.75
2018-12-26T11:48:45.900Z,23.76
2018-12-26T11:51:12.553Z,23.72
2018-12-26T11:53:39.190Z,23.67
2018-12-26T11:56:07.243Z,23.67
2018-12-26T11:58:32.552Z,23.64
2018-12-26T12:00:59.197Z,23.64
2018-12-26T12:03:25.838Z,23.67
2018-12-26T12:05:52.496Z,23.64
2018-12-26T12:08:19.236Z,23.66
2018-12-26T12:10:46.005Z,23.63
2018-12-26T12:13:12.650Z,23.66
2018-12-26T12:15:39.289Z,23.67
2018-12-26T12:18:05.994Z,23.67
2018-12-26T12:20:32.680Z,23.67
2018-12-26T12:22:59.393Z,23.71
2018-12-26T12:25:26.027Z,23.66
2018-12-26T12:27:52.662Z,23.71
2018-12-26T12:30:19.352Z,23.67
2018-12-26T12:32:45.999Z,23.67
2018-12-26T12:35:12.638Z,23.65
2018-12-26T12:37:39.280Z,23.64
2018-12-26T12:40:05.933Z,23.57
2018-12-26T12:42:32.571Z,23.41
2018-12-26T12:44:59.258Z,23.19
2018-12-26T12:47:25.896Z,22.97
2018-12-26T12:49:52.606Z,23.05
2018-12-26T12:52:19.243Z,23.15
2018-12-26T12:54:45.880Z,23.27
2018-12-26T12:57:15.460Z,23.31
2018-12-26T12:59:44.894Z,23.42
2018-12-26T13:02:08.762Z,23.41
2018-12-26T13:04:35.503Z,23.44
2018-12-26T13:07:02.446Z,23.50
2018-12-26T13:09:28.918Z,23.47
2018-12-26T13:11:55.561Z,23.49
2018-12-26T13:14:22.209Z,23.48
2018-12-26T13:16:48.916Z,23.48
2018-12-26T13:19:15.635Z,23.47
2018-12-26T13:21:42.273Z,23.45
2018-12-26T13:24:08.986Z,23.46
2018-12-26T13:26:35.643Z,23.45
2018-12-26T13:29:02.293Z,23.44
2018-12-26T13:31:29.051Z,23.42
2018-12-26T13:33:55.657Z,23.43
2018-12-26T13:36:22.310Z,23.39
2018-12-26T13:38:48.962Z,23.42
2018-12-26T13:41:15.615Z,23.38
2018-12-26T13:43:42.270Z,23.39
2018-12-26T13:46:08.912Z,23.38
2018-12-26T13:48:35.612Z,23.40
2018-12-26T13:51:02.261Z,23.39
2018-12-26T13:53:29.607Z,23.39
2018-12-26T13:55:55.599Z,23.38
2018-12-26T13:58:22.289Z,23.39
2018-12-26T14:00:48.933Z,23.37
2018-12-26T14:03:15.693Z,23.38
2018-12-26T14:05:42.342Z,23.35
2018-12-26T14:08:08.983Z,23.36
2018-12-26T14:10:35.696Z,23.38
2018-12-26T14:13:02.448Z,23.36
2018-12-26T14:15:29.024Z,23.36
2018-12-26T14:17:55.673Z,23.33
2018-12-26T14:20:22.317Z,23.34
2018-12-26T14:22:49.023Z,23.32
2018-12-26T14:25:15.724Z,23.29
2018-12-26T14:27:42.367Z,23.24
2018-12-26T14:30:11.357Z,23.23
2018-12-26T14:32:35.749Z,23.24
2018-12-26T14:35:02.389Z,23.14
2018-12-26T14:37:29.052Z,23.18
2018-12-26T14:39:55.706Z,23.11
2018-12-26T14:42:22.351Z,23.12
2018-12-26T14:44:49.009Z,23.11
2018-12-26T14:47:15.658Z,23.09
2018-12-26T14:49:42.316Z,23.09
2018-12-26T14:52:08.971Z,23.07
2018-12-26T14:54:35.677Z,23.05
2018-12-26T14:57:02.364Z,23.02
2018-12-26T14:59:29.056Z,23.00
2018-12-26T15:01:55.694Z,23.01
2018-12-26T15:04:22.341Z,22.98
2018-12-26T15:06:48.998Z,22.98
2018-12-26T15:09:15.651Z,22.95
2018-12-26T15:11:42.290Z,22.95
2018-12-26T15:14:08.946Z,22.96
2018-12-26T15:16:35.658Z,22.96
2018-12-26T15:19:02.302Z,22.92
2018-12-26T15:21:28.956Z,22.93
2018-12-26T15:23:55.607Z,22.95
2018-12-26T15:26:22.259Z,22.96
2018-12-26T15:28:48.938Z,22.98
2018-12-26T15:31:15.557Z,22.98
2018-12-26T15:33:42.196Z,23.01
2018-12-26T15:36:08.829Z,23.01
2018-12-26T15:38:35.532Z,23.02
2018-12-26T15:41:02.194Z,23.05
2018-12-26T15:43:28.837Z,23.02
2018-12-26T15:45:55.490Z,23.04
2018-12-26T15:48:22.142Z,23.05
2018-12-26T15:50:48.787Z,23.05
2018-12-26T15:53:15.432Z,23.09
2018-12-26T15:55:42.085Z,23.08
2018-12-26T15:58:11.536Z,23.07
2018-12-26T16:00:38.213Z,23.09
2018-12-26T16:03:04.855Z,23.06
2018-12-26T16:05:31.501Z,23.08
2018-12-26T16:07:58.155Z,23.07
2018-12-26T16:10:24.795Z,23.09
2018-12-26T16:12:51.463Z,23.10
2018-12-26T16:15:18.104Z,23.11
2018-12-26T16:17:44.743Z,23.10
2018-12-26T16:20:11.395Z,23.11
2018-12-26T16:22:39.669Z,23.11
2018-12-26T16:25:04.674Z,23.11
2018-12-26T16:27:31.313Z,23.10
2018-12-26T16:29:57.976Z,23.09
2018-12-26T16:32:24.624Z,23.12
2018-12-26T16:34:51.266Z,23.12
2018-12-26T16:37:17.906Z,23.13
2018-12-26T16:39:44.566Z,23.13
2018-12-26T16:42:11.203Z,23.16
2018-12-26T16:44:37.849Z,23.15
2018-12-26T16:47:04.489Z,23.16
2018-12-26T16:49:31.161Z,23.14
2018-12-26T16:51:57.808Z,23.12
2018-12-26T16:54:25.686Z,23.15
2018-12-26T16:56:51.098Z,23.14
2018-12-26T16:59:17.750Z,23.16
2018-12-26T17:01:44.412Z,23.15
2018-12-26T17:04:11.084Z,23.14
2018-12-26T17:06:37.711Z,23.16
2018-12-26T17:09:04.351Z,23.16
2018-12-26T17:11:31.049Z,23.15
2018-12-26T17:13:57.705Z,23.16
2018-12-26T17:16:24.349Z,23.16
2018-12-26T17:18:50.986Z,23.16
2018-12-26T17:21:17.640Z,23.19
2018-12-26T17:23:44.310Z,23.16
2018-12-26T17:26:10.948Z,23.17
2018-12-26T17:28:37.596Z,23.16
2018-12-26T17:31:04.570Z,23.16
2018-12-26T17:33:30.881Z,23.15
2018-12-26T17:35:57.526Z,23.17
2018-12-26T17:38:24.169Z,23.18
2018-12-26T17:40:50.816Z,23.13
2018-12-26T17:43:17.466Z,23.20
2018-12-26T17:45:44.107Z,23.18
2018-12-26T17:48:10.864Z,23.17
2018-12-26T17:50:37.513Z,23.16
2018-12-26T17:53:04.154Z,23.17
2018-12-26T17:55:30.804Z,23.15
2018-12-26T17:57:57.443Z,23.18
2018-12-26T18:00:24.102Z,23.20
2018-12-26T18:02:50.763Z,23.17
2018-12-26T18:05:17.404Z,23.15
2018-12-26T18:07:44.056Z,23.17
2018-12-26T18:10:10.689Z,23.18
2018-12-26T18:12:37.347Z,23.14
2018-12-26T18:15:04.388Z,23.18
2018-12-26T18:17:31.042Z,23.17
2018-12-26T18:19:57.751Z,23.20
2018-12-26T18:22:27.280Z,23.18
2018-12-26T18:24:53.936Z,23.17
2018-12-26T18:27:20.623Z,23.14
2018-12-26T18:29:47.337Z,23.17
2018-12-26T18:32:13.994Z,23.21
2018-12-26T18:34:40.631Z,23.16
2018-12-26T18:37:07.274Z,23.15
2018-12-26T18:39:33.937Z,23.15
2018-12-26T18:42:00.586Z,23.16
2018-12-26T18:44:27.315Z,23.16
2018-12-26T18:46:53.956Z,23.14
2018-12-26T18:49:20.611Z,23.17
2018-12-26T18:51:47.249Z,23.17
2018-12-26T18:54:13.912Z,23.17
2018-12-26T18:56:40.552Z,23.21
2018-12-26T18:59:07.262Z,23.17
2018-12-26T19:01:33.903Z,23.15
2018-12-26T19:04:00.548Z,23.16
2018-12-26T19:06:27.195Z,23.15
2018-12-26T19:08:53.840Z,23.15
2018-12-26T19:11:20.489Z,23.11
2018-12-26T19:13:47.139Z,23.16
2018-12-26T19:16:13.791Z,23.14
2018-12-26T19:18:40.481Z,23.15
2018-12-26T19:21:07.133Z,23.16
2018-12-26T19:23:33.777Z,23.15
2018-12-26T19:26:00.464Z,23.13
2018-12-26T19:28:27.110Z,23.13
2018-12-26T19:30:53.759Z,23.14
2018-12-26T19:33:20.415Z,23.12
2018-12-26T19:35:48.209Z,23.14
2018-12-26T19:38:14.850Z,23.14
2018-12-26T19:40:41.485Z,23.16
2018-12-26T19:43:08.163Z,23.14
2018-12-26T19:45:34.809Z,23.12
2018-12-26T19:48:01.501Z,23.13
2018-12-26T19:50:28.143Z,23.13
2018-12-26T19:52:54.832Z,23.13
2018-12-26T19:55:21.477Z,23.14
2018-12-26T19:57:48.136Z,23.13
2018-12-26T20:00:14.827Z,23.13
2018-12-26T20:02:41.484Z,23.12
2018-12-26T20:05:08.121Z,23.11
2018-12-26T20:07:34.774Z,23.12
2018-12-26T20:10:01.432Z,23.15
2018-12-26T20:12:28.113Z,23.11
2018-12-26T20:14:54.756Z,23.13
2018-12-26T20:17:21.594Z,23.16
2018-12-26T20:19:48.240Z,23.15
2018-12-26T20:22:14.878Z,23.14
2018-12-26T20:24:41.556Z,23.14
2018-12-26T20:27:08.251Z,23.16
2018-12-26T20:29:34.898Z,23.14
2018-12-26T20:32:01.535Z,23.15
2018-12-26T20:34:28.229Z,23.13
2018-12-26T20:36:54.874Z,23.12
2018-12-26T20:39:21.560Z,23.11
2018-12-26T20:41:48.200Z,23.09
2018-12-26T20:44:14.859Z,23.10
2018-12-26T20:46:41.498Z,22.93
2018-12-26T20:49:08.149Z,22.64
2018-12-26T20:51:34.784Z,22.55
2018-12-26T20:54:01.429Z,22.64
2018-12-26T20:56:28.072Z,22.77
2018-12-26T20:58:54.765Z,22.76
2018-12-26T21:01:21.403Z,22.81
2018-12-26T21:03:48.099Z,22.83
2018-12-26T21:06:14.754Z,22.88
2018-12-26T21:08:41.406Z,22.91
2018-12-26T21:11:08.053Z,22.94
2018-12-26T21:13:34.780Z,22.98
2018-12-26T21:16:01.428Z,22.99
2018-12-26T21:18:28.121Z,23.03
2018-12-26T21:20:54.767Z,23.03
2018-12-26T21:23:21.528Z,23.05
2018-12-26T21:25:48.101Z,23.05
2018-12-26T21:28:14.773Z,23.05
2018-12-26T21:30:41.428Z,23.07
2018-12-26T21:33:08.058Z,23.07
2018-12-26T21:35:34.714Z,23.07
2018-12-26T21:38:04.192Z,23.03
2018-12-26T21:40:30.858Z,23.04
2018-12-26T21:42:57.498Z,23.03
2018-12-26T21:45:24.906Z,23.08
2018-12-26T21:47:50.841Z,23.03
2018-12-26T21:50:17.494Z,23.10
2018-12-26T21:52:44.149Z,23.05
2018-12-26T21:55:10.789Z,23.05
2018-12-26T21:57:37.428Z,23.05
2018-12-26T22:00:04.117Z,23.06
2018-12-26T22:02:30.766Z,23.04
2018-12-26T22:04:57.410Z,23.07
2018-12-26T22:07:24.075Z,23.06
2018-12-26T22:09:50.713Z,23.08
2018-12-26T22:12:17.357Z,23.05
2018-12-26T22:14:44.011Z,23.06
2018-12-26T22:17:10.655Z,23.04
2018-12-26T22:19:37.317Z,23.06
2018-12-26T22:22:03.956Z,23.03
2018-12-26T22:24:30.610Z,23.05
2018-12-26T22:26:57.301Z,23.07
2018-12-26T22:29:23.952Z,23.06
2018-12-26T22:31:50.589Z,23.07
2018-12-26T22:34:17.244Z,23.04
2018-12-26T22:36:43.896Z,23.06
2018-12-26T22:39:10.541Z,23.06
2018-12-26T22:41:37.234Z,23.10
2018-12-26T22:44:03.933Z,23.04
2018-12-26T22:46:30.621Z,23.05
2018-12-26T22:48:57.381Z,23.04
2018-12-26T22:51:24.032Z,23.04
2018-12-26T22:53:50.686Z,23.04
2018-12-26T22:56:17.372Z,23.05
2018-12-26T22:58:44.016Z,23.05
2018-12-26T23:01:10.669Z,23.06
2018-12-26T23:03:37.341Z,23.08
2018-12-26T23:06:04.110Z,23.04
2018-12-26T23:08:30.786Z,23.04
2018-12-26T23:10:57.600Z,23.06
2018-12-26T23:13:24.268Z,23.03
2018-12-26T23:15:50.957Z,23.06
2018-12-26T23:18:17.617Z,23.05
2018-12-26T23:20:44.307Z,23.07
2018-12-26T23:23:10.963Z,23.07
2018-12-26T23:25:37.604Z,23.04
2018-12-26T23:28:04.314Z,23.07
2018-12-26T23:30:30.954Z,23.07
2018-12-26T23:32:57.591Z,23.09
2018-12-26T23:35:24.285Z,23.03
2018-12-26T23:37:50.922Z,23.07
2018-12-26T23:40:18.925Z,23.08
2018-12-26T23:42:44.278Z,23.06
2018-12-26T23:45:10.986Z,23.08
2018-12-26T23:47:37.630Z,23.06
2018-12-26T23:50:04.269Z,23.09
2018-12-26T23:52:30.978Z,23.06
2018-12-26T23:54:57.616Z,23.06
2018-12-26T23:57:24.261Z,23.05
2018-12-26T23:59:50.897Z,23.05
